Cummaquid, Massachusetts
Current Conditions -  °F | °C
As of 1:42 AM on Monday 24 Nov 2014 (Local Time) from KHYA Reporting Station
Haze Haze  
Wind Chill: 52°   Ceiling: Unl
Heat Index: 52°   Visibility: 6mi
Dew Point: 50°   Wind: 5mph
Humidity: 93%   Direction: 140°SE
Pressure: 30.08"   Gusts: NA
Location:  41.7°N, 70.27°W
Report Text: KHYA 240642Z 14004KT 6SM BR SCT002 11/10 A3008 RMK AO2 T01110100
Loading
Personal Weather Stations






























Interactive Weather Map New forecast layout! Learn more

10-Day Weather Forecast

Advertisements
Track Severe Weather on mobile